createdAt,value
2018-11-04T00:00:21.004Z,102405.48
2018-11-04T00:02:59.585Z,102403.20
2018-11-04T00:05:36.529Z,102402.63
2018-11-04T00:08:14.636Z,102402.92
2018-11-04T00:10:54.588Z,102399.35
2018-11-04T00:13:33.148Z,102397.48
2018-11-04T00:16:13.289Z,102398.70
2018-11-04T00:18:49.668Z,102387.77
2018-11-04T00:21:26.798Z,102381.50
2018-11-04T00:24:02.627Z,102377.45
2018-11-04T00:26:38.785Z,102376.05
2018-11-04T00:29:15.669Z,102378.47
2018-11-04T00:31:53.152Z,102376.19
2018-11-04T00:34:29.328Z,102367.44
2018-11-04T00:37:09.960Z,102362.27
2018-11-04T00:39:48.805Z,102355.29
2018-11-04T00:42:28.454Z,102351.81
2018-11-04T00:45:06.811Z,102349.13
2018-11-04T00:47:44.483Z,102345.18
2018-11-04T00:50:20.972Z,102338.03
2018-11-04T00:52:58.789Z,102333.06
2018-11-04T00:55:40.091Z,102324.25
2018-11-04T00:58:17.598Z,102319.27
2018-11-04T01:00:54.056Z,102312.64
2018-11-04T01:03:31.066Z,102307.36
2018-11-04T01:06:09.255Z,102304.20
2018-11-04T01:08:48.769Z,102302.32
2018-11-04T01:11:26.426Z,102304.02
2018-11-04T01:14:04.270Z,102293.69
2018-11-04T01:16:44.549Z,102289.40
2018-11-04T01:19:22.619Z,102300.14
2018-11-04T01:21:58.724Z,102282.53
2018-11-04T01:24:34.995Z,102290.86
2018-11-04T01:27:10.990Z,102286.58
2018-11-04T01:29:47.986Z,102287.09
2018-11-04T01:32:23.291Z,102280.94
2018-11-04T01:34:59.118Z,102280.77
2018-11-04T01:37:36.093Z,102275.21
2018-11-04T01:40:13.588Z,102277.28
2018-11-04T01:42:50.239Z,102265.07
2018-11-04T01:45:28.253Z,102265.30
2018-11-04T01:48:01.625Z,102257.86
2018-11-04T01:50:31.265Z,102263.73
2018-11-04T01:53:00.776Z,102267.61
2018-11-04T01:55:30.278Z,102262.23
2018-11-04T01:57:59.823Z,102256.38
2018-11-04T02:00:29.316Z,102252.12
2018-11-04T02:02:59.717Z,102254.20
2018-11-04T02:05:29.274Z,102258.96
2018-11-04T02:07:58.878Z,102241.49
2018-11-04T02:10:28.385Z,102249.01
2018-11-04T02:12:57.947Z,102239.77
2018-11-04T02:15:27.522Z,102236.06
2018-11-04T02:17:57.085Z,102233.17
2018-11-04T02:20:26.681Z,102229.30
2018-11-04T02:22:56.290Z,102228.89
2018-11-04T02:25:25.839Z,102221.55
2018-11-04T02:27:55.370Z,102212.50
2018-11-04T02:30:24.815Z,102220.77
2018-11-04T02:32:54.417Z,102216.89
2018-11-04T02:35:24.018Z,102215.09
2018-11-04T02:40:37.336Z,102206.42
2018-11-04T02:43:06.848Z,102198.97
2018-11-04T02:45:36.322Z,102194.52
2018-11-04T02:48:06.183Z,102192.65
2018-11-04T02:50:35.665Z,102191.66
2018-11-04T02:53:06.597Z,102192.95
2018-11-04T02:55:36.147Z,102185.00
2018-11-04T02:58:06.600Z,102177.95
2018-11-04T03:00:36.156Z,102178.67
2018-11-04T03:03:06.916Z,102176.39
2018-11-04T03:05:36.381Z,102172.41
2018-11-04T03:08:06.130Z,102180.58
2018-11-04T03:10:35.630Z,102174.12
2018-11-04T03:13:06.420Z,102173.64
2018-11-04T03:15:35.915Z,102179.39
2018-11-04T03:18:06.241Z,102175.52
2018-11-04T03:20:35.780Z,102175.78
2018-11-04T03:23:06.561Z,102172.48
2018-11-04T03:25:36.015Z,102172.48
2018-11-04T03:28:07.541Z,102168.20
2018-11-04T03:30:37.451Z,102155.22
2018-11-04T03:33:07.624Z,102156.88
2018-11-04T03:35:37.283Z,102160.28
2018-11-04T03:38:07.449Z,102155.28
2018-11-04T03:40:37.034Z,102156.78
2018-11-04T03:43:06.810Z,102155.08
2018-11-04T03:45:36.280Z,102153.48
2018-11-04T03:48:06.570Z,102146.52
2018-11-04T03:50:36.131Z,102144.44
2018-11-04T03:53:07.669Z,102136.48
2018-11-04T03:55:38.120Z,102134.03
2018-11-04T03:58:07.639Z,102139.34
2018-11-04T04:00:37.296Z,102139.55
2018-11-04T04:03:06.840Z,102145.36
2018-11-04T04:05:36.461Z,102146.45
2018-11-04T04:08:06.560Z,102143.08
2018-11-04T04:10:36.061Z,102142.27
2018-11-04T04:13:05.871Z,102139.68
2018-11-04T04:15:35.340Z,102139.52
2018-11-04T04:18:06.061Z,102141.58
2018-11-04T04:20:35.597Z,102134.55
2018-11-04T04:23:06.347Z,102134.85
2018-11-04T04:25:35.938Z,102129.99
2018-11-04T04:28:06.318Z,102129.52
2018-11-04T04:30:36.826Z,102126.42
2018-11-04T04:33:06.815Z,102121.19
2018-11-04T04:35:36.368Z,102125.77
2018-11-04T04:38:06.872Z,102121.39
2018-11-04T04:40:36.414Z,102119.22
2018-11-04T04:43:07.657Z,102121.22
2018-11-04T04:45:37.164Z,102122.00
2018-11-04T04:48:06.946Z,102117.55
2018-11-04T04:50:36.469Z,102110.61
2018-11-04T04:53:07.019Z,102107.92
2018-11-04T04:55:36.479Z,102103.88
2018-11-04T04:58:13.201Z,102109.05
2018-11-04T05:00:42.531Z,102108.94
2018-11-04T05:03:11.841Z,102108.77
2018-11-04T05:05:41.190Z,102117.70
2018-11-04T05:08:10.547Z,102109.38
2018-11-04T05:10:39.866Z,102105.09
2018-11-04T05:13:09.198Z,102104.63
2018-11-04T05:15:38.520Z,102098.64
2018-11-04T05:18:08.306Z,102099.35
2018-11-04T05:20:37.687Z,102092.90
2018-11-04T05:23:07.409Z,102105.09
2018-11-04T05:25:36.771Z,102102.21
2018-11-04T05:28:06.794Z,102107.17
2018-11-04T05:30:36.271Z,102101.20
2018-11-04T05:33:06.396Z,102101.20
2018-11-04T05:35:35.776Z,102094.91
2018-11-04T05:38:06.355Z,102095.02
2018-11-04T05:40:35.691Z,102092.44
2018-11-04T05:43:06.153Z,102091.55
2018-11-04T05:45:48.731Z,102088.09
2018-11-04T05:48:18.847Z,102087.88
2018-11-04T05:50:48.165Z,102093.15
2018-11-04T05:53:17.497Z,102090.27
2018-11-04T05:55:46.835Z,102090.27
2018-11-04T05:58:16.382Z,102081.63
2018-11-04T06:00:51.485Z,102087.37
2018-11-04T06:03:21.060Z,102083.98
2018-11-04T06:05:50.626Z,102081.91
2018-11-04T06:08:20.134Z,102076.23
2018-11-04T06:10:49.680Z,102075.83
2018-11-04T06:13:19.243Z,102075.62
2018-11-04T06:15:48.787Z,102072.22
2018-11-04T06:18:18.703Z,102066.11
2018-11-04T06:20:48.281Z,102066.11
2018-11-04T06:23:17.888Z,102070.19
2018-11-04T06:25:47.375Z,102066.79
2018-11-04T06:28:16.879Z,102068.89
2018-11-04T06:30:46.364Z,102061.45
2018-11-04T06:33:15.813Z,102075.76
2018-11-04T06:35:45.372Z,102069.38
2018-11-04T06:38:14.847Z,102058.16
2018-11-04T06:40:44.410Z,102059.05
2018-11-04T06:43:13.915Z,102057.58
2018-11-04T06:45:43.427Z,102048.64
2018-11-04T06:48:12.938Z,102051.02
2018-11-04T06:50:42.553Z,102053.30
2018-11-04T06:53:12.038Z,102048.72
2018-11-04T06:55:41.554Z,102057.75
2018-11-04T06:58:11.247Z,102053.98
2018-11-04T07:00:40.865Z,102061.42
2018-11-04T07:03:10.374Z,102061.11
2018-11-04T07:08:21.362Z,102065.32
2018-11-04T07:10:54.321Z,102069.47
2018-11-04T07:13:23.943Z,102067.45
2018-11-04T07:15:53.462Z,102065.92
2018-11-04T07:18:23.062Z,102070.00
2018-11-04T07:20:52.606Z,102067.58
2018-11-04T07:23:22.182Z,102073.02
2018-11-04T07:25:51.793Z,102068.83
2018-11-04T07:28:21.499Z,102071.67
2018-11-04T07:30:51.099Z,102070.23
2018-11-04T07:33:20.599Z,102069.00
2018-11-04T07:35:50.208Z,102063.68
2018-11-04T07:38:21.019Z,102058.36
2018-11-04T07:41:03.866Z,102064.70
2018-11-04T07:43:33.663Z,102070.55
2018-11-04T07:46:31.748Z,102071.84
2018-11-04T07:52:07.091Z,102079.39
2018-11-04T07:54:36.610Z,102074.66
2018-11-04T07:57:06.352Z,102075.48
2018-11-04T07:59:35.737Z,102069.42
2018-11-04T08:02:06.164Z,102067.74
2018-11-04T08:04:35.616Z,102055.61
2018-11-04T08:07:41.071Z,102051.59
2018-11-04T08:10:12.196Z,102051.91
2018-11-04T08:12:42.160Z,102045.91
2018-11-04T08:15:12.139Z,102051.52
2018-11-04T08:17:46.861Z,102049.73
2018-11-04T08:20:16.382Z,102048.44
2018-11-04T08:22:45.767Z,102037.17
2018-11-04T08:25:15.250Z,102038.29
2018-11-04T08:27:46.593Z,102045.64
2018-11-04T08:30:16.340Z,102029.21
2018-11-04T08:32:45.818Z,102028.70
2018-11-04T08:35:15.246Z,102028.66
2018-11-04T08:37:44.695Z,102026.05
2018-11-04T08:40:15.564Z,102023.36
2018-11-04T08:42:47.713Z,102019.36
2018-11-04T08:45:17.242Z,102011.39
2018-11-04T08:48:17.401Z,102018.31
2018-11-04T08:50:46.831Z,102023.80
2018-11-04T08:53:16.265Z,102023.78
2018-11-04T08:55:45.626Z,102020.66
2018-11-04T08:58:15.090Z,102016.23
2018-11-04T09:00:44.437Z,102019.17
2018-11-04T09:03:13.815Z,102019.93
2018-11-04T09:05:43.241Z,102006.45
2018-11-04T09:08:20.313Z,102008.50
2018-11-04T09:10:49.691Z,102002.77
2018-11-04T09:13:19.098Z,102002.30
2018-11-04T09:15:48.568Z,102004.00
2018-11-04T09:18:17.938Z,101995.73
2018-11-04T09:20:47.381Z,101992.09
2018-11-04T09:23:16.806Z,101996.80
2018-11-04T09:25:46.185Z,101992.50
2018-11-04T09:28:15.757Z,101997.67
2018-11-04T09:30:45.252Z,101998.55
2018-11-04T09:33:14.710Z,101995.92
2018-11-04T09:35:44.473Z,101992.89
2018-11-04T09:38:13.718Z,101999.77
2018-11-04T09:40:43.095Z,101996.24
2018-11-04T09:43:12.423Z,101994.05
2018-11-04T09:45:41.815Z,101989.67
2018-11-04T09:48:11.251Z,101979.16
2018-11-04T09:50:44.041Z,101976.05
2018-11-04T09:53:23.688Z,101974.08
2018-11-04T09:55:53.183Z,101972.59
2018-11-04T09:58:22.554Z,101970.77
2018-11-04T10:00:51.982Z,101966.75
2018-11-04T10:03:50.378Z,101963.19
2018-11-04T10:06:21.752Z,101966.94
2018-11-04T10:08:51.169Z,101965.16
2018-11-04T10:11:20.608Z,101959.34
2018-11-04T10:13:50.138Z,101960.45
2018-11-04T10:16:32.426Z,101961.98
2018-11-04T10:19:01.918Z,101955.30
2018-11-04T10:21:31.826Z,101951.70
2018-11-04T10:24:06.397Z,101948.51
2018-11-04T10:26:36.940Z,101940.00
2018-11-04T10:29:06.809Z,101932.81
2018-11-04T10:31:36.199Z,101934.30
2018-11-04T10:34:28.346Z,101932.48
2018-11-04T10:36:57.700Z,101924.39
2018-11-04T10:39:27.149Z,101928.95
2018-11-04T10:41:56.467Z,101918.30
2018-11-04T10:44:26.653Z,101919.02
2018-11-04T10:46:56.009Z,101916.25
2018-11-04T10:49:25.445Z,101913.42
2018-11-04T10:51:54.740Z,101910.60
2018-11-04T10:54:24.100Z,101920.87
2018-11-04T10:56:53.437Z,101923.30
2018-11-04T10:59:22.800Z,101916.56
2018-11-04T11:01:52.156Z,101914.59
2018-11-04T11:04:21.507Z,101911.72
2018-11-04T11:06:50.929Z,101900.64
2018-11-04T11:09:20.321Z,101903.01
2018-11-04T11:11:49.678Z,101894.92
2018-11-04T11:14:19.007Z,101894.30
2018-11-04T11:16:49.216Z,101889.70
2018-11-04T11:19:18.583Z,101879.92
2018-11-04T11:21:47.943Z,101881.00
2018-11-04T11:24:17.308Z,101879.92
2018-11-04T11:26:46.641Z,101874.53
2018-11-04T11:29:16.008Z,101865.19
2018-11-04T11:31:45.351Z,101856.10
2018-11-04T11:34:14.728Z,101859.80
2018-11-04T11:36:44.075Z,101850.39
2018-11-04T11:39:14.287Z,101848.47
2018-11-04T11:41:46.282Z,101846.55
2018-11-04T11:44:22.986Z,101850.28
2018-11-04T11:46:53.284Z,101842.11
2018-11-04T11:49:22.662Z,101828.74
2018-11-04T11:51:52.059Z,101828.93
2018-11-04T11:54:21.567Z,101828.64
2018-11-04T11:56:50.894Z,101816.17
2018-11-04T11:59:20.263Z,101814.66
2018-11-04T12:01:49.556Z,101811.86
2018-11-04T12:04:18.896Z,101809.81
2018-11-04T12:06:48.248Z,101808.27
2018-11-04T12:09:20.343Z,101804.11
2018-11-04T12:11:49.770Z,101803.41
2018-11-04T12:14:19.169Z,101790.89
2018-11-04T12:16:48.594Z,101796.30
2018-11-04T12:19:19.242Z,101788.66
2018-11-04T12:21:48.646Z,101788.84
2018-11-04T12:24:18.047Z,101777.68
2018-11-04T12:26:47.366Z,101783.09
2018-11-04T12:29:16.739Z,101779.73
2018-11-04T12:31:46.124Z,101768.45
2018-11-04T12:34:16.045Z,101769.02
2018-11-04T12:36:54.682Z,101762.09
2018-11-04T12:39:24.120Z,101729.61
2018-11-04T12:41:53.451Z,101754.80
2018-11-04T12:44:22.960Z,101748.23
2018-11-04T12:46:52.363Z,101750.28
2018-11-04T12:49:22.591Z,101750.36
2018-11-04T12:51:52.691Z,101733.44
2018-11-04T12:54:22.099Z,101743.59
2018-11-04T12:56:51.440Z,101738.66
2018-11-04T12:59:20.993Z,101737.19
2018-11-04T13:02:01.195Z,101735.16
2018-11-04T13:04:30.639Z,101690.95
2018-11-04T13:07:07.306Z,101727.92
2018-11-04T13:09:44.383Z,101724.11
2018-11-04T13:12:13.794Z,101724.23
2018-11-04T13:14:43.149Z,101731.63
2018-11-04T13:17:12.583Z,101720.74
2018-11-04T13:19:43.463Z,101718.05
2018-11-04T13:22:22.627Z,101723.25
2018-11-04T13:24:51.960Z,101721.43
2018-11-04T13:27:21.359Z,101718.69
2018-11-04T13:29:50.718Z,101715.50
2018-11-04T13:35:37.252Z,101720.00
2018-11-04T13:51:48.553Z,101723.72
2018-11-04T13:54:27.057Z,101724.58
2018-11-04T13:56:56.433Z,101718.80
2018-11-04T13:59:25.778Z,101715.74
2018-11-04T14:01:55.112Z,101721.51
2018-11-04T14:04:26.650Z,101717.20
2018-11-04T14:06:56.083Z,101711.98
2018-11-04T14:09:25.431Z,101709.41
2018-11-04T14:11:54.779Z,101705.05
2018-11-04T14:14:24.127Z,101704.64
2018-11-04T14:16:53.512Z,101706.80
2018-11-04T14:19:23.701Z,101697.66
2018-11-04T14:22:05.375Z,101700.36
2018-11-04T14:24:34.735Z,101700.89
2018-11-04T14:29:48.254Z,101694.91
2018-11-04T14:32:17.788Z,101695.77
2018-11-04T14:34:47.162Z,101692.25
2018-11-04T14:37:16.582Z,101694.86
2018-11-04T14:39:49.853Z,101698.37
2018-11-04T14:42:19.206Z,101688.71
2018-11-04T14:44:56.817Z,101680.80
2018-11-04T14:47:48.314Z,101681.55
2018-11-04T14:50:19.010Z,101682.72
2018-11-04T14:52:48.990Z,101686.55
2018-11-04T14:55:22.521Z,101692.16
2018-11-04T14:57:57.459Z,101690.27
2018-11-04T15:00:45.089Z,101689.61
2018-11-04T15:03:14.469Z,101687.73
2018-11-04T15:05:43.860Z,101686.75
2018-11-04T15:08:13.182Z,101682.34
2018-11-04T15:10:42.558Z,101674.39
2018-11-04T15:13:13.693Z,101676.08
2018-11-04T15:15:43.059Z,101672.47
2018-11-04T15:18:18.390Z,101670.59
2018-11-04T15:20:51.780Z,101668.70
2018-11-04T15:23:23.022Z,101665.95
2018-11-04T15:25:55.994Z,101664.05
2018-11-04T15:28:25.325Z,101654.73
2018-11-04T15:30:58.233Z,101662.03
2018-11-04T15:33:30.441Z,101664.95
2018-11-04T15:36:07.859Z,101665.20
2018-11-04T15:38:37.244Z,101661.92
2018-11-04T15:41:09.080Z,101669.20
2018-11-04T15:43:39.114Z,101666.39
2018-11-04T15:46:09.000Z,101664.96
2018-11-04T15:48:38.379Z,101653.93
2018-11-04T15:51:07.749Z,101655.52
2018-11-04T15:53:37.105Z,101666.73
2018-11-04T15:56:54.708Z,101666.61
2018-11-04T15:59:28.241Z,101658.98
2018-11-04T16:01:57.580Z,101661.99
2018-11-04T16:04:26.959Z,101658.94
2018-11-04T16:06:58.410Z,101666.31
2018-11-04T16:09:27.821Z,101664.56
2018-11-04T16:11:57.207Z,101668.92
2018-11-04T16:14:26.585Z,101670.63
2018-11-04T16:16:55.930Z,101672.41
2018-11-04T16:19:25.288Z,101669.80
2018-11-04T16:21:54.817Z,101669.88
2018-11-04T16:24:25.913Z,101675.98
2018-11-04T16:27:10.070Z,101671.67
2018-11-04T16:29:42.487Z,101673.45
2018-11-04T16:32:13.508Z,101679.12
2018-11-04T16:34:42.744Z,101674.34
2018-11-04T16:37:12.160Z,101676.06
2018-11-04T16:39:41.543Z,101677.72
2018-11-04T16:42:10.907Z,101673.71
2018-11-04T16:44:40.591Z,101674.11
2018-11-04T16:47:10.101Z,101669.75
2018-11-04T16:49:39.644Z,101667.08
2018-11-04T16:52:09.205Z,101671.05
2018-11-04T16:54:47.384Z,101672.80
2018-11-04T16:57:22.568Z,101667.56
2018-11-04T16:59:52.341Z,101675.81
2018-11-04T17:02:44.784Z,101678.91
2018-11-04T17:05:14.620Z,101672.76
2018-11-04T17:07:44.206Z,101676.29
2018-11-04T17:10:15.137Z,101676.73
2018-11-04T17:12:44.764Z,101671.05
2018-11-04T17:15:15.483Z,101664.03
2018-11-04T17:17:45.329Z,101672.76
2018-11-04T17:20:17.191Z,101668.80
2018-11-04T17:22:47.218Z,101662.64
2018-11-04T17:25:16.852Z,101660.46
2018-11-04T17:27:46.507Z,101657.84
2018-11-04T17:30:21.961Z,101657.41
2018-11-04T17:32:57.770Z,101661.33
2018-11-04T17:35:27.396Z,101659.16
2018-11-04T17:37:56.927Z,101659.63
2018-11-04T17:40:26.474Z,101656.10
2018-11-04T17:42:56.135Z,101652.17
2018-11-04T17:45:25.721Z,101653.91
2018-11-04T17:47:55.557Z,101653.00
2018-11-04T17:50:25.250Z,101656.09
2018-11-04T17:52:58.892Z,101649.47
2018-11-04T17:55:28.291Z,101648.25
2018-11-04T17:57:57.631Z,101650.86
2018-11-04T18:00:26.943Z,101652.17
2018-11-04T18:02:56.271Z,101647.81
2018-11-04T18:05:25.621Z,101650.86
2018-11-04T18:07:55.026Z,101647.33
2018-11-04T18:10:24.356Z,101651.70
2018-11-04T18:12:53.718Z,101650.39
2018-11-04T18:15:23.051Z,101653.91
2018-11-04T18:17:52.390Z,101653.48
2018-11-04T18:20:21.699Z,101657.84
2018-11-04T18:22:51.057Z,101653.48
2018-11-04T18:25:20.431Z,101642.14
2018-11-04T18:27:49.795Z,101635.59
2018-11-04T18:30:19.295Z,101631.62
2018-11-04T18:32:48.842Z,101635.99
2018-11-04T18:35:18.406Z,101634.69
2018-11-04T18:37:48.212Z,101635.91
2018-11-04T18:40:18.846Z,101631.11
2018-11-04T18:42:48.454Z,101638.92
2018-11-04T18:45:18.368Z,101629.28
2018-11-04T18:47:47.973Z,101639.31
2018-11-04T18:50:17.841Z,101626.14
2018-11-04T18:52:47.647Z,101636.17
2018-11-04T18:55:17.286Z,101638.74
2018-11-04T18:57:46.817Z,101638.70
2018-11-04T19:00:17.754Z,101629.50
2018-11-04T19:02:48.259Z,101639.18
2018-11-04T19:05:17.826Z,101636.56
2018-11-04T19:07:47.435Z,101635.73
2018-11-04T19:10:18.716Z,101633.11
2018-11-04T19:12:48.442Z,101635.73
2018-11-04T19:15:19.333Z,101630.90
2018-11-04T19:17:49.102Z,101623.09
2018-11-04T19:20:18.717Z,101619.95
2018-11-04T19:22:48.410Z,101621.69
2018-11-04T19:25:17.915Z,101620.73
2018-11-04T19:27:47.504Z,101617.20
2018-11-04T19:30:17.950Z,101612.28
2018-11-04T19:32:47.637Z,101609.57
2018-11-04T19:35:17.780Z,101609.92
2018-11-04T19:37:47.395Z,101600.29
2018-11-04T19:40:17.604Z,101597.23
2018-11-04T19:42:47.127Z,101572.43
2018-11-04T19:45:17.124Z,101605.43
2018-11-04T19:47:46.966Z,101612.01
2018-11-04T19:50:16.660Z,101608.14
2018-11-04T19:55:27.593Z,101608.70
2018-11-04T19:57:57.192Z,101606.13
2018-11-04T20:00:26.750Z,101613.11
2018-11-04T20:02:56.455Z,101601.34
2018-11-04T20:05:26.209Z,101602.20
2018-11-04T20:08:11.352Z,101589.05
2018-11-04T20:10:40.937Z,101586.26
2018-11-04T20:13:15.863Z,101591.83
2018-11-04T20:15:45.386Z,101593.43
2018-11-04T20:18:26.869Z,101587.59
2018-11-04T20:20:56.528Z,101580.48
2018-11-04T20:23:26.101Z,101582.52
2018-11-04T20:26:02.558Z,101577.53
2018-11-04T20:28:32.267Z,101579.52
2018-11-04T20:31:01.782Z,101586.29
2018-11-04T20:33:31.292Z,101580.48
2018-11-04T20:36:01.026Z,101583.09
2018-11-04T20:38:35.558Z,101583.95
2018-11-04T20:41:11.513Z,101590.00
2018-11-04T20:43:41.252Z,101590.39
2018-11-04T20:46:11.648Z,101591.30
2018-11-04T20:48:46.411Z,101583.52
2018-11-04T20:51:18.806Z,101581.73
2018-11-04T20:53:48.618Z,101578.73
2018-11-04T20:56:23.396Z,101578.73
2018-11-04T20:58:52.959Z,101572.48
2018-11-04T21:01:22.671Z,101566.57
2018-11-04T21:03:52.408Z,101570.33
2018-11-04T21:06:22.007Z,101565.34
2018-11-04T21:08:51.771Z,101559.10
2018-11-04T21:11:21.602Z,101564.12
2018-11-04T21:16:15.689Z,101558.28
2018-11-04T21:18:45.102Z,101553.83
2018-11-04T21:21:15.635Z,101553.73
2018-11-04T21:23:45.347Z,101559.36
2018-11-04T21:26:15.055Z,101555.35
2018-11-04T21:28:44.809Z,101555.29
2018-11-04T21:31:14.401Z,101556.05
2018-11-04T21:33:44.793Z,101558.59
2018-11-04T21:36:15.173Z,101553.66
2018-11-04T21:38:47.819Z,101553.92
2018-11-04T21:41:17.183Z,101547.77
2018-11-04T21:43:46.790Z,101550.75
2018-11-04T21:46:15.915Z,101553.31
2018-11-04T21:48:46.008Z,101549.76
2018-11-04T21:51:15.893Z,101548.35
2018-11-04T21:53:45.218Z,101545.34
2018-11-04T21:56:15.417Z,101543.95
2018-11-04T21:58:45.147Z,101548.22
2018-11-04T22:01:14.509Z,101547.30
2018-11-04T22:03:43.922Z,101544.63
2018-11-04T22:06:13.217Z,101541.95
2018-11-04T22:08:42.610Z,101535.77
2018-11-04T22:11:11.994Z,101539.13
2018-11-04T22:13:41.389Z,101546.88
2018-11-04T22:16:10.825Z,101533.29
2018-11-04T22:18:40.575Z,101538.44
2018-11-04T22:21:09.974Z,101535.72
2018-11-04T22:23:39.376Z,101539.51
2018-11-04T22:26:08.821Z,101542.91
2018-11-04T22:28:38.211Z,101538.13
2018-11-04T22:31:07.542Z,101535.52
2018-11-04T22:33:36.886Z,101534.15
2018-11-04T22:36:06.439Z,101530.19
2018-11-04T22:38:35.799Z,101527.13
2018-11-04T22:41:06.454Z,101532.66
2018-11-04T22:43:35.927Z,101528.70
2018-11-04T22:46:06.731Z,101538.30
2018-11-04T22:48:39.404Z,101533.24
2018-11-04T22:51:09.330Z,101526.16
2018-11-04T22:53:38.705Z,101520.81
2018-11-04T22:56:08.174Z,101528.92
2018-11-04T22:58:37.467Z,101525.67
2018-11-04T23:01:06.965Z,101516.30
2018-11-04T23:03:36.328Z,101523.81
2018-11-04T23:06:07.699Z,101524.41
2018-11-04T23:08:37.059Z,101515.39
2018-11-04T23:11:06.416Z,101510.71
2018-11-04T23:13:35.769Z,101507.34
2018-11-04T23:16:06.354Z,101510.45
2018-11-04T23:18:35.831Z,101507.06
2018-11-04T23:21:06.585Z,101500.11
2018-11-04T23:23:35.938Z,101496.64
2018-11-04T23:26:07.050Z,101483.59
2018-11-04T23:28:36.431Z,101487.84
2018-11-04T23:31:06.569Z,101489.91
2018-11-04T23:33:37.826Z,101483.77
2018-11-04T23:36:07.220Z,101487.14
2018-11-04T23:38:36.595Z,101488.86
2018-11-04T23:41:06.648Z,101489.73
2018-11-04T23:43:36.042Z,101491.84
2018-11-04T23:46:06.906Z,101483.48
2018-11-04T23:48:36.270Z,101484.69
2018-11-04T23:51:06.592Z,101489.91
2018-11-04T23:53:35.930Z,101486.90
2018-11-04T23:56:06.578Z,101493.05
2018-11-04T23:58:36.281Z,101489.23
